createdAt,value
2022-12-25T00:01:20.172Z,48.28
2022-12-25T00:03:46.881Z,50.03
2022-12-25T00:06:13.230Z,43.15
2022-12-25T00:08:40.050Z,56.70
2022-12-25T00:11:08.806Z,43.03
2022-12-25T00:13:35.065Z,41.42
2022-12-25T00:16:05.400Z,57.08
2022-12-25T00:18:31.716Z,41.97
2022-12-25T00:20:58.985Z,53.80
2022-12-25T12:50:46.496Z,23.10
2022-12-25T12:53:17.668Z,24.13
2022-12-25T12:55:43.960Z,18.45
2022-12-25T12:58:11.899Z,28.42
2022-12-25T13:00:48.871Z,26.17
2022-12-25T13:03:24.307Z,19.17
2022-12-25T13:05:54.197Z,22.10
2022-12-25T13:08:31.349Z,24.63
2022-12-25T13:11:16.170Z,19.85
2022-12-25T13:13:44.245Z,20.98
2022-12-25T13:16:17.043Z,17.02
2022-12-25T13:18:43.412Z,33.13
2022-12-25T13:21:15.826Z,36.85
2022-12-25T13:23:42.106Z,24.88
2022-12-25T13:26:12.921Z,28.15
2022-12-25T13:28:39.228Z,19.25
2022-12-25T13:31:11.197Z,24.60
2022-12-25T13:33:37.863Z,25.77
2022-12-25T13:36:05.011Z,24.15
2022-12-25T13:38:31.403Z,18.73
2022-12-25T13:41:16.894Z,22.58
2022-12-25T13:43:44.423Z,20.15
2022-12-25T13:46:12.839Z,17.13
2022-12-25T13:48:39.359Z,22.25
2022-12-25T13:51:13.016Z,17.08
2022-12-25T13:53:39.295Z,17.27
2022-12-25T13:56:05.581Z,17.30
2022-12-25T13:58:33.971Z,24.20
2022-12-25T14:01:01.344Z,17.63
2022-12-25T14:03:27.640Z,23.52
2022-12-25T14:05:58.177Z,24.17
2022-12-25T14:08:26.253Z,21.20
2022-12-25T14:10:53.124Z,15.63
2022-12-25T14:13:20.739Z,20.25
2022-12-25T14:15:48.002Z,19.98
2022-12-25T14:18:15.208Z,20.75
2022-12-25T14:20:42.545Z,25.85
2022-12-25T14:23:12.907Z,24.92
2022-12-25T14:25:43.616Z,22.00
2022-12-25T14:28:18.000Z,22.58
2022-12-25T14:30:44.470Z,21.50
2022-12-25T14:33:19.048Z,17.77
2022-12-25T14:35:46.236Z,24.23
2022-12-25T14:38:17.352Z,29.17
2022-12-25T14:40:45.600Z,28.67
2022-12-25T14:43:23.373Z,30.10
2022-12-25T14:46:00.430Z,23.95
2022-12-25T14:48:28.037Z,38.45
2022-12-25T14:51:00.463Z,31.45
2022-12-25T14:53:38.506Z,28.40
2022-12-25T14:56:04.966Z,38.92
2022-12-25T14:58:32.755Z,38.97
2022-12-25T15:01:00.465Z,24.63
2022-12-25T15:03:32.308Z,25.73
2022-12-25T15:06:02.602Z,23.13
2022-12-25T15:08:29.871Z,20.83
2022-12-25T15:11:00.623Z,19.63
2022-12-25T15:13:28.156Z,19.25
2022-12-25T15:16:12.072Z,18.65
2022-12-25T15:18:40.209Z,19.75
2022-12-25T15:21:07.053Z,20.33
2022-12-25T15:23:33.396Z,12.57
2022-12-25T15:25:59.662Z,16.63
2022-12-25T15:28:25.985Z,14.85
2022-12-25T15:30:52.375Z,15.65
2022-12-25T15:33:19.037Z,13.63
2022-12-25T15:35:45.553Z,14.65
2022-12-25T15:38:12.480Z,17.48
2022-12-25T15:40:39.120Z,13.93
2022-12-25T15:43:11.205Z,16.15
2022-12-25T15:45:47.217Z,20.17
2022-12-25T15:48:13.545Z,16.77
2022-12-25T15:50:39.940Z,19.35
2022-12-25T15:53:06.254Z,22.30
2022-12-25T15:55:32.611Z,20.00
2022-12-25T15:57:58.874Z,23.10
2022-12-25T16:00:25.987Z,23.08
2022-12-25T16:02:53.033Z,25.38
2022-12-25T16:05:19.846Z,27.17
2022-12-25T16:07:46.230Z,21.20
2022-12-25T16:10:19.361Z,21.52
2022-12-25T16:12:45.822Z,27.60
2022-12-25T16:15:13.046Z,22.08
2022-12-25T16:17:39.555Z,19.83
2022-12-25T16:20:06.138Z,17.58
2022-12-25T16:22:39.608Z,18.13
2022-12-25T16:25:13.135Z,20.27
2022-12-25T16:27:39.442Z,19.33
2022-12-25T16:30:06.008Z,19.02
2022-12-25T16:32:32.319Z,15.02
2022-12-25T16:34:58.755Z,18.08
2022-12-25T16:37:25.146Z,18.75
2022-12-25T16:39:51.447Z,28.27
2022-12-25T16:42:17.702Z,40.10
2022-12-25T16:44:44.013Z,39.80
2022-12-25T16:47:10.306Z,37.67
2022-12-25T16:49:36.571Z,32.55
2022-12-25T16:52:03.830Z,52.35
2022-12-25T16:54:30.140Z,33.88
2022-12-25T16:56:56.368Z,35.80
2022-12-25T16:59:22.658Z,31.48
2022-12-25T17:01:49.091Z,34.92
2022-12-25T17:04:15.410Z,43.42
2022-12-25T17:06:41.656Z,35.50
2022-12-25T17:09:08.060Z,35.22
2022-12-25T17:11:34.403Z,32.60
2022-12-25T17:14:02.445Z,44.25
2022-12-25T17:16:29.964Z,49.58
2022-12-25T17:19:08.196Z,32.70
2022-12-25T17:21:35.313Z,44.33
2022-12-25T17:24:03.832Z,37.90
2022-12-25T17:26:31.089Z,71.93
2022-12-25T17:28:57.456Z,52.13
2022-12-25T17:31:23.803Z,54.80
2022-12-25T17:33:50.190Z,45.88
2022-12-25T17:36:17.947Z,50.25
2022-12-25T17:38:44.572Z,72.25
2022-12-25T17:41:12.357Z,60.38
2022-12-25T17:43:41.126Z,142.38
2022-12-25T17:46:08.382Z,98.78
2022-12-25T17:48:36.201Z,67.63
2022-12-25T17:51:06.209Z,64.05
2022-12-25T17:53:34.259Z,60.42
2022-12-25T17:56:00.529Z,144.68
2022-12-25T17:58:27.005Z,80.30
2022-12-25T18:00:53.589Z,109.07
2022-12-25T18:03:20.550Z,70.90
2022-12-25T18:05:47.189Z,73.78
2022-12-25T18:08:13.800Z,71.88
2022-12-25T18:10:41.196Z,61.88
2022-12-25T18:13:07.841Z,64.97
2022-12-25T18:15:40.782Z,60.25
2022-12-25T18:18:07.219Z,44.08
2022-12-25T18:20:39.632Z,70.57
2022-12-25T18:23:06.622Z,84.50
2022-12-25T18:25:33.704Z,58.20
2022-12-25T18:28:02.535Z,105.45
2022-12-25T18:30:29.177Z,102.10
2022-12-25T18:32:55.527Z,62.60
2022-12-25T18:35:21.824Z,61.60
2022-12-25T18:37:48.101Z,53.05
2022-12-25T18:40:14.698Z,45.88
2022-12-25T18:42:41.055Z,42.70
2022-12-25T18:45:08.710Z,52.75
2022-12-25T18:47:35.276Z,44.83
2022-12-25T18:50:01.545Z,45.08
2022-12-25T18:52:47.613Z,53.63
2022-12-25T18:55:14.172Z,52.83
2022-12-25T18:57:40.866Z,51.25
2022-12-25T19:00:07.661Z,57.33
2022-12-25T19:02:33.961Z,56.22
2022-12-25T19:05:00.710Z,98.90
2022-12-25T19:07:27.114Z,80.63
2022-12-25T19:09:53.420Z,74.65
2022-12-25T19:12:19.759Z,68.53
2022-12-25T19:14:47.438Z,110.63
2022-12-25T19:17:14.472Z,141.32
2022-12-25T19:19:40.813Z,76.55
2022-12-25T19:22:07.231Z,62.30
2022-12-25T19:24:33.659Z,50.95
2022-12-25T19:27:00.029Z,62.97
2022-12-25T19:29:26.379Z,61.30
2022-12-25T19:31:52.814Z,63.47
2022-12-25T19:34:19.159Z,97.18
2022-12-25T19:36:45.418Z,57.97
2022-12-25T19:39:11.756Z,44.72
2022-12-25T19:41:38.204Z,47.05
2022-12-25T19:44:05.112Z,37.28
2022-12-25T19:46:32.591Z,32.83
2022-12-25T19:49:03.902Z,34.80
2022-12-25T19:51:35.484Z,40.45
2022-12-25T19:54:02.063Z,37.15
2022-12-25T19:56:28.745Z,35.33
2022-12-25T19:58:55.774Z,35.08
2022-12-25T20:01:23.121Z,35.55
2022-12-25T20:03:49.676Z,24.73
2022-12-25T20:06:19.745Z,30.92
2022-12-25T20:08:46.451Z,28.33
2022-12-25T20:11:12.769Z,28.67
2022-12-25T20:13:39.065Z,32.00
2022-12-25T20:16:06.286Z,25.25
2022-12-25T20:18:32.813Z,28.95
2022-12-25T20:21:00.712Z,31.50
2022-12-25T20:23:27.222Z,28.55
2022-12-25T20:25:54.066Z,25.63
2022-12-25T20:28:20.448Z,32.70
2022-12-25T20:30:46.696Z,30.65
2022-12-25T20:33:12.937Z,27.55
2022-12-25T20:35:44.264Z,29.90
2022-12-25T20:38:10.572Z,29.13
2022-12-25T20:41:00.154Z,30.75
2022-12-25T20:43:23.067Z,26.35
2022-12-25T20:45:51.173Z,28.73
2022-12-25T20:48:17.453Z,30.42
2022-12-25T20:50:43.744Z,41.65
2022-12-25T20:53:09.998Z,31.60
2022-12-25T20:55:36.293Z,28.73
2022-12-25T20:58:02.543Z,27.02
2022-12-25T21:00:28.792Z,24.65
2022-12-25T21:02:55.189Z,28.33
2022-12-25T21:05:21.634Z,24.92
2022-12-25T21:07:47.968Z,24.90
2022-12-25T21:10:14.403Z,22.83
2022-12-25T21:12:40.690Z,26.98
2022-12-25T21:15:13.208Z,28.27
2022-12-25T21:17:41.547Z,27.67
2022-12-25T21:20:08.215Z,29.33
2022-12-25T21:22:34.701Z,27.52
2022-12-25T21:25:00.976Z,27.75
2022-12-25T21:27:28.840Z,30.98
2022-12-25T21:29:55.241Z,29.02
2022-12-25T21:32:40.035Z,30.65
2022-12-25T21:35:06.514Z,29.20
2022-12-25T21:37:32.818Z,30.25
2022-12-25T21:39:59.606Z,34.30
2022-12-25T21:42:25.891Z,29.58
2022-12-25T21:44:52.129Z,33.38
2022-12-25T21:47:18.414Z,37.70
2022-12-25T21:50:03.072Z,32.10
2022-12-25T21:52:29.348Z,31.58
2022-12-25T21:54:55.693Z,33.25
2022-12-25T21:57:22.052Z,33.88
